IAH weather

George Bush Intercontinental Houston Airport
Houston, Texas, United States

Public forecast

Using degrees Fahrenheit for public forecast. Weather courtesy of forecast.io.

METAR (pilot weather report)

Retrieved 2018/02/24 11:37 UTC (18 minutes ago):

KIAH 241137Z 17010G16KT 7SM FEW015 BKN026 OVC038 23/21 A2997 RMK AO2 T02280206 $

TAF (pilot weather forecast)

Retrieved 2018/02/24 06:30 UTC (5 hours ago):

TAF KIAH 240527Z 2406/2512 15008KT 6SM BR SCT008 OVC012 FM240900 15008KT 4SM BR VCSH SCT004 OVC008 FM241600 17012KT P6SM SCT008 OVC015 FM241900 18015G23KT P6SM BKN025 FM242300 20010KT P6SM -SHRA SCT010 OVC020 FM250500 25007KT P6SM BKN008 OVC015